Time;durP1;ratioP1;P1;durP2;ratioP2;P2;SDS_P1;SDS_P2;PMS_P1;PMS_P2;Temp;Humidity;BMP_temperature;BMP_pressure;BME280_temperature;BME280_humidity;BME280_pressure;Samples;Min_cycle;Max_cycle;Signal;HPM_P1;HPM_P2
2021/10/31 08:01:11;;;;;;;1.30;1.20;;;;;;;9.36;97.95;98183.50;5526099;23;20064;-69
2021/10/31 08:03:37;;;;;;;2.20;2.05;;;;;;;9.77;96.23;98194.63;4880364;29;20045;-70
2021/10/31 08:06:03;;;;;;;2.13;1.98;;;;;;;9.66;95.90;98179.34;4880781;29;20029;-70
2021/10/31 08:08:28;;;;;;;1.83;1.67;;;;;;;9.69;95.37;98160.31;4880267;29;20036;-69
2021/10/31 08:10:54;;;;;;;3.50;2.20;;;;;;;9.91;94.08;98145.97;4880369;29;20120;-69
2021/10/31 08:13:28;;;;;;;1.92;1.20;;;;;;;10.59;91.05;98144.16;4887951;29;20040;-69
2021/10/31 08:15:54;;;;;;;1.60;1.50;;;;;;;12.04;85.96;98134.50;4899483;29;20028;-74
2021/10/31 08:18:20;;;;;;;1.90;1.80;;;;;;;13.66;76.74;98135.38;4898823;29;20109;-74
2021/10/31 08:20:46;;;;;;;1.67;1.48;;;;;;;13.43;76.18;98133.69;4898764;29;20057;-73
2021/10/31 08:23:12;;;;;;;1.30;1.20;;;;;;;12.68;79.64;98133.97;4898601;29;20029;-74
2021/10/31 08:25:37;;;;;;;2.13;1.65;;;;;;;12.30;81.32;98134.44;4898827;29;20103;-73
2021/10/31 08:28:05;;;;;;;1.88;1.77;;;;;;;11.81;84.24;98145.63;4893230;29;20112;-73
2021/10/31 08:30:32;;;;;;;1.40;1.25;;;;;;;11.41;86.60;98161.59;4890682;29;20032;-73
2021/10/31 08:33:06;;;;;;;1.38;1.15;;;;;;;11.15;88.11;98167.59;4898506;29;20032;-73
2021/10/31 08:35:32;;;;;;;2.45;1.35;;;;;;;10.68;90.17;98160.31;4898421;29;20036;-73
2021/10/31 08:37:57;;;;;;;2.20;1.33;;;;;;;10.54;91.96;98152.94;4898604;29;20032;-73
2021/10/31 08:40:23;;;;;;;0.93;0.88;;;;;;;10.84;91.16;98160.75;4898320;29;20076;-73
2021/10/31 08:42:49;;;;;;;1.48;1.38;;;;;;;11.34;88.71;98150.56;4889489;29;20471;-73
2021/10/31 08:45:14;;;;;;;1.58;1.48;;;;;;;11.23;88.84;98147.47;4894602;29;20039;-73
2021/10/31 08:47:40;;;;;;;1.42;1.33;;;;;;;11.29;89.30;98142.09;4898461;29;20073;-74
2021/10/31 08:50:06;;;;;;;1.75;1.48;;;;;;;11.42;88.51;98148.59;4898122;29;20044;-73
2021/10/31 08:52:32;;;;;;;2.45;1.60;;;;;;;11.66;87.02;98130.56;4898058;29;20031;-74
2021/10/31 08:54:57;;;;;;;1.42;1.33;;;;;;;11.97;85.94;98122.63;4898157;29;20474;-74
2021/10/31 08:57:22;;;;;;;4.60;1.60;;;;;;;11.90;86.43;98118.53;4891954;29;20386;-74
2021/10/31 08:59:48;;;;;;;1.38;1.27;;;;;;;12.08;85.36;98118.72;4890348;29;20026;-74
2021/10/31 09:02:14;;;;;;;1.35;1.00;;;;;;;12.27;84.84;98118.09;4897884;29;20033;-73
2021/10/31 09:04:39;;;;;;;1.67;1.38;;;;;;;12.61;84.03;98113.38;4898033;29;20031;-73
2021/10/31 09:07:09;;;;;;;1.23;1.13;;;;;;;12.79;82.77;98111.00;4898116;29;20029;-73
2021/10/31 09:09:35;;;;;;;1.65;1.55;;;;;;;12.94;81.25;98097.41;4898014;29;20141;-73
2021/10/31 09:12:00;;;;;;;2.15;1.92;;;;;;;14.57;76.60;98084.56;4892864;29;20493;-73
2021/10/31 09:14:26;;;;;;;1.50;1.40;;;;;;;16.86;66.34;98076.69;4889957;29;20032;-74
2021/10/31 09:16:51;;;;;;;0.95;0.85;;;;;;;17.97;61.21;98074.72;4897672;29;20056;-74
2021/10/31 09:19:17;;;;;;;1.38;1.20;;;;;;;18.19;60.07;98071.69;4897922;29;20107;-74
2021/10/31 09:21:43;;;;;;;1.48;1.10;;;;;;;17.80;61.30;98074.91;4897317;29;20029;-74
2021/10/31 09:24:09;;;;;;;1.00;1.00;;;;;;;18.10;60.47;98061.75;4897754;29;20036;-75
2021/10/31 09:26:35;;;;;;;1.73;1.30;;;;;;;18.59;58.19;98067.47;4897384;29;20028;-74
2021/10/31 09:29:01;;;;;;;1.40;1.30;;;;;;;20.14;54.44;98058.28;4886841;29;20120;-74
2021/10/31 09:31:26;;;;;;;2.65;1.20;;;;;;;19.80;54.59;98058.88;4895016;29;20074;-73
2021/10/31 09:33:54;;;;;;;1.00;0.90;;;;;;;22.21;49.24;98052.06;4897467;29;20028;-73
2021/10/31 09:36:19;;;;;;;1.05;0.70;;;;;;;21.59;48.95;98054.97;4897453;29;20497;-73
2021/10/31 09:38:45;;;;;;;1.23;1.13;;;;;;;22.22;47.77;98051.09;4897242;29;20054;-73
2021/10/31 09:41:13;;;;;;;1.00;0.98;;;;;;;24.20;44.79;98046.47;4893511;29;20029;-72
2021/10/31 09:43:47;;;;;;;1.17;0.90;;;;;;;25.63;42.33;98048.88;4888811;29;20058;-73
2021/10/31 09:46:12;;;;;;;0.88;0.88;;;;;;;27.22;37.86;98032.97;4897551;29;20123;-73
2021/10/31 09:48:38;;;;;;;2.70;0.85;;;;;;;28.57;35.21;98030.03;4897084;29;20543;-73
2021/10/31 09:51:05;;;;;;;0.70;0.70;;;;;;;29.29;33.45;98033.97;4897197;29;20041;-73
2021/10/31 09:53:30;;;;;;;1.88;1.08;;;;;;;29.03;32.58;98030.59;4856855;29;20055;-73
2021/10/31 09:55:57;;;;;;;1.02;0.80;;;;;;;28.50;35.65;98023.69;4902424;29;20405;-73
2021/10/31 09:58:27;;;;;;;0.52;0.50;;;;;;;29.21;33.41;98027.81;4875752;29;20063;-73
2021/10/31 10:00:57;;;;;;;1.13;0.77;;;;;;;30.25;31.49;98017.28;4895142;29;20040;-73
2021/10/31 10:06:07;;;;;;;0.93;0.77;;;;;;;30.97;29.86;98012.69;4902154;29;20040;-73
2021/10/31 10:08:33;;;;;;;1.33;0.90;;;;;;;30.33;30.30;98014.63;4882501;29;20596;-73
2021/10/31 10:10:58;;;;;;;0.75;0.75;;;;;;;29.11;32.89;98014.59;4900181;29;20040;-73
2021/10/31 10:13:28;;;;;;;1.25;0.73;;;;;;;30.56;30.50;98003.16;4870715;29;20417;-74
2021/10/31 10:16:21;;;;;;;0.60;0.43;;;;;;;30.61;30.61;97995.47;4902743;29;20028;-73
2021/10/31 10:18:48;;;;;;;1.02;0.85;;;;;;;32.60;27.90;97988.22;4883932;29;20466;-73
2021/10/31 10:21:28;;;;;;;0.70;0.70;;;;;;;30.79;29.34;97993.38;4900149;29;20024;-73
2021/10/31 10:23:56;;;;;;;2.05;1.48;;;;;;;31.47;28.98;97986.44;4884877;29;20047;-73
2021/10/31 10:26:31;;;;;;;0.68;0.65;;;;;;;31.81;28.30;97975.25;4899249;29;20087;-72
2021/10/31 10:29:18;;;;;;;0.60;0.60;;;;;;;31.52;28.70;97972.53;4852051;29;20055;-73
2021/10/31 10:31:51;;;;;;;0.50;0.50;;;;;;;31.66;28.64;97969.06;4896592;29;20103;-71
2021/10/31 10:34:28;;;;;;;0.77;0.77;;;;;;;28.88;32.94;97961.81;4887689;29;20048;-73
2021/10/31 10:36:56;;;;;;;0.50;0.50;;;;;;;28.97;32.68;97956.56;4896843;29;20502;-73
2021/10/31 10:39:22;;;;;;;1.35;1.00;;;;;;;29.53;31.36;97958.41;4873884;29;20036;-73
2021/10/31 10:41:53;;;;;;;13.50;1.02;;;;;;;29.96;31.24;97949.19;4891442;29;20430;-73
2021/10/31 10:44:31;;;;;;;1.42;0.80;;;;;;;30.67;30.03;97952.81;4858678;29;20036;-73
2021/10/31 10:47:07;;;;;;;0.77;0.77;;;;;;;28.96;32.90;97944.19;4896575;29;20438;-73
2021/10/31 10:49:36;;;;;;;0.88;0.73;;;;;;;29.73;30.66;97942.88;4887806;29;20119;-73
2021/10/31 10:52:06;;;;;;;0.45;0.43;;;;;;;27.22;33.20;97937.22;4896229;29;20032;-73
2021/10/31 10:54:31;;;;;;;1.92;0.80;;;;;;;27.61;33.79;97926.22;4887500;29;20482;-73
2021/10/31 10:57:05;;;;;;;1.52;0.80;;;;;;;26.64;33.57;97922.53;4893971;29;20036;-73
2021/10/31 10:59:31;;;;;;;0.38;0.38;;;;;;;28.12;33.06;97919.22;4877950;29;20044;-73
2021/10/31 11:02:17;;;;;;;0.30;0.30;;;;;;;28.65;30.83;97920.78;4896120;29;20028;-73
2021/10/31 11:04:45;;;;;;;0.30;0.30;;;;;;;29.36;29.54;97909.53;4873491;29;20047;-73
2021/10/31 11:07:11;;;;;;;0.75;0.40;;;;;;;28.47;29.38;97912.03;4896422;29;20118;-73
2021/10/31 11:09:48;;;;;;;0.30;0.30;;;;;;;28.60;29.26;97891.09;4887438;29;20040;-73
2021/10/31 11:12:28;;;;;;;0.85;0.47;;;;;;;29.61;26.98;97890.84;4891392;29;20046;-73
2021/10/31 11:15:15;;;;;;;0.38;0.38;;;;;;;27.20;30.25;97888.66;4883258;29;20021;-73
2021/10/31 11:17:41;;;;;;;0.95;0.57;;;;;;;30.64;26.56;97882.78;4874667;29;20040;-73
2021/10/31 11:20:08;;;;;;;1.27;0.70;;;;;;;29.58;27.04;97870.66;4909635;29;20036;-73
2021/10/31 11:22:34;;;;;;;0.43;0.32;;;;;;;28.83;27.98;97876.16;4877444;29;20036;-73
2021/10/31 11:25:01;;;;;;;0.38;0.38;;;;;;;28.99;27.22;97864.66;4912868;29;20036;-73
2021/10/31 11:27:29;;;;;;;1.00;0.50;;;;;;;27.80;28.27;97861.28;4871186;29;20147;-73
2021/10/31 11:29:56;;;;;;;0.23;0.23;;;;;;;27.10;29.80;97856.84;4891930;29;20035;-72
2021/10/31 11:32:24;;;;;;;0.35;0.35;;;;;;;26.82;29.16;97850.75;4898228;29;20302;-72
2021/10/31 11:34:52;;;;;;;0.35;0.30;;;;;;;25.64;31.09;97850.69;4889459;29;20068;-72
2021/10/31 11:37:28;;;;;;;2.20;0.57;;;;;;;24.99;31.40;97844.38;4899701;29;20023;-72
2021/10/31 11:39:58;;;;;;;0.20;0.20;;;;;;;24.57;32.57;97849.97;4899417;29;20478;-72
2021/10/31 11:42:34;;;;;;;0.98;0.40;;;;;;;25.27;31.97;97840.88;4888383;29;20028;-72
2021/10/31 11:44:59;;;;;;;0.30;0.20;;;;;;;23.80;33.95;97843.50;4893471;29;20028;-72
2021/10/31 11:47:29;;;;;;;0.28;0.28;;;;;;;24.60;33.95;97826.69;4892581;29;20159;-72
2021/10/31 11:50:15;;;;;;;0.38;0.38;;;;;;;26.01;31.90;97812.69;4899355;29;20450;-72
2021/10/31 11:53:00;;;;;;;0.22;0.22;;;;;;;25.59;30.38;97813.97;4876166;29;20054;-72
2021/10/31 11:55:28;;;;;;;0.20;0.20;;;;;;;25.82;30.81;97806.53;4899580;29;20103;-72
2021/10/31 11:58:01;;;;;;;0.50;0.30;;;;;;;25.94;30.26;97795.69;4873640;29;20040;-68
2021/10/31 12:00:30;;;;;;;0.30;0.30;;;;;;;26.02;30.01;97803.75;4900558;29;20184;-72
2021/10/31 12:03:03;;;;;;;0.32;0.32;;;;;;;26.31;29.51;97798.25;4879037;29;20119;-72
2021/10/31 12:05:41;;;;;;;0.20;0.20;;;;;;;23.79;32.78;97798.66;4882903;29;20060;-72
2021/10/31 12:08:27;;;;;;;0.52;0.40;;;;;;;24.25;33.63;97798.06;4880583;29;20106;-77
2021/10/31 12:10:52;;;;;;;0.82;0.38;;;;;;;22.63;33.21;97793.53;4895696;29;20040;-76
2021/10/31 12:13:19;;;;;;;0.38;0.38;;;;;;;22.50;34.83;97782.28;4865993;29;20051;-75
2021/10/31 12:16:13;;;;;;;0.20;0.20;;;;;;;22.54;35.40;97778.44;4851920;29;20029;-76
2021/10/31 12:18:42;;;;;;;0.85;0.68;;;;;;;22.53;35.02;97772.31;4845428;29;20537;-78
2021/10/31 12:21:18;;;;;;;;;;;;;;;22.35;35.67;97770.34;4866986;29;20041;-78
2021/10/31 12:24:01;;;;;;;0.30;0.30;;;;;;;21.87;35.96;97768.06;4847333;29;19912;-78
2021/10/31 12:26:43;;;;;;;0.88;0.52;;;;;;;21.57;35.33;97766.91;4864364;29;20515;-74
2021/10/31 12:29:20;;;;;;;0.40;0.40;;;;;;;21.62;35.37;97758.63;4860275;29;20411;-77
2021/10/31 12:31:59;;;;;;;0.43;0.43;;;;;;;21.72;35.89;97755.13;4860091;29;20090;-79
2021/10/31 12:34:41;;;;;;;0.50;0.50;;;;;;;21.58;34.91;97752.75;4852220;29;20496;-79
2021/10/31 12:37:26;;;;;;;1.67;0.57;;;;;;;21.47;35.19;97745.72;4861416;29;20025;-78
2021/10/31 12:39:53;;;;;;;0.43;0.40;;;;;;;21.20;34.92;97748.66;4852475;29;20044;-77
2021/10/31 12:42:25;;;;;;;0.40;0.40;;;;;;;21.35;35.94;97740.56;4880583;29;20494;-79
2021/10/31 12:45:05;;;;;;;0.22;0.22;;;;;;;21.38;35.79;97733.25;4875809;29;20060;-77
2021/10/31 12:47:55;;;;;;;0.30;0.30;;;;;;;21.46;35.70;97732.63;4887362;29;20060;-77
2021/10/31 12:50:23;;;;;;;0.75;0.68;;;;;;;21.49;35.99;97721.84;4898220;29;20040;-71
2021/10/31 12:52:56;;;;;;;0.30;0.30;;;;;;;21.38;35.21;97722.72;4876660;29;20056;-70
2021/10/31 12:55:22;;;;;;;0.38;0.38;;;;;;;21.22;35.49;97722.19;4909865;29;20032;-71
2021/10/31 12:57:56;;;;;;;0.22;0.22;;;;;;;21.22;35.99;97723.03;4876751;29;20024;-71
2021/10/31 13:00:22;;;;;;;1.33;0.60;;;;;;;21.15;36.08;97716.56;4909342;29;20092;-72
2021/10/31 13:02:50;;;;;;;0.30;0.30;;;;;;;20.92;35.89;97733.31;4876218;29;20031;-74
2021/10/31 13:05:26;;;;;;;0.30;0.30;;;;;;;21.12;36.05;97729.13;4896356;29;20035;-74
2021/10/31 13:07:53;;;;;;;0.38;0.38;;;;;;;20.78;35.75;97722.03;4876831;29;20044;-74
2021/10/31 13:10:20;;;;;;;4.68;0.65;;;;;;;20.81;35.79;97714.88;4909818;29;20028;-75
2021/10/31 13:12:47;;;;;;;0.30;0.30;;;;;;;21.04;35.69;97713.94;4867641;29;20506;-75
2021/10/31 13:15:16;;;;;;;0.30;0.30;;;;;;;20.83;35.69;97708.53;4896756;29;20038;-76
2021/10/31 13:17:44;;;;;;;0.22;0.22;;;;;;;20.88;36.63;97695.00;4875313;29;20071;-74
2021/10/31 13:20:34;;;;;;;0.52;0.45;;;;;;;20.72;35.52;97687.44;4910503;29;20033;-74
2021/10/31 13:23:04;;;;;;;0.30;0.30;;;;;;;20.65;37.12;97687.09;4877316;29;20054;-74
2021/10/31 13:25:39;;;;;;;0.50;0.50;;;;;;;20.69;37.13;97679.78;4908358;29;20032;-74
2021/10/31 13:28:14;;;;;;;0.40;0.40;;;;;;;20.40;36.57;97674.06;4877946;29;20072;-74
2021/10/31 13:31:13;;;;;;;0.60;0.43;;;;;;;20.46;36.90;97666.56;4906818;29;20032;-77
2021/10/31 13:34:00;;;;;;;0.20;0.20;;;;;;;20.56;36.74;97666.75;4881530;29;20075;-77
2021/10/31 13:36:30;;;;;;;0.25;0.25;;;;;;;20.54;36.48;97666.00;4901607;29;20275;-77
2021/10/31 13:39:06;;;;;;;;;;;;;;;20.50;36.60;97664.56;4883977;29;20088;-75
2021/10/31 13:41:37;;;;;;;1.38;0.40;;;;;;;20.64;36.73;97672.22;4897026;29;20317;-75
2021/10/31 13:44:17;;;;;;;0.50;0.50;;;;;;;20.72;36.52;97663.75;4871896;29;20111;-76
2021/10/31 13:46:59;;;;;;;0.50;0.50;;;;;;;20.71;36.17;97657.66;4902422;29;20032;-76
2021/10/31 13:49:25;;;;;;;0.40;0.40;;;;;;;20.65;36.83;97662.56;4865285;29;20458;-76
2021/10/31 13:51:51;;;;;;;0.38;0.38;;;;;;;20.67;36.94;97660.66;4903710;29;20028;-76
2021/10/31 13:54:18;;;;;;;1.58;0.77;;;;;;;20.68;37.02;97657.88;4890973;29;20104;-76
2021/10/31 13:56:46;;;;;;;0.60;0.55;;;;;;;20.47;37.39;97655.13;4904284;29;20033;-76
2021/10/31 13:59:14;;;;;;;0.30;0.30;;;;;;;20.58;37.47;97656.09;4890769;29;20036;-76
2021/10/31 14:01:41;;;;;;;0.30;0.30;;;;;;;20.39;37.04;97656.63;4905391;29;20028;-77
2021/10/31 14:04:21;;;;;;;3.20;0.63;;;;;;;20.41;37.91;97652.94;4879639;29;20044;-77
2021/10/31 14:06:48;;;;;;;;;;;;;;;20.31;37.65;97658.97;4900049;29;20066;-77
2021/10/31 14:09:17;;;;;;;0.30;0.30;;;;;;;20.19;38.56;97655.50;4888607;29;20417;-76
2021/10/31 14:12:00;;;;;;;0.30;0.30;;;;;;;20.05;38.51;97638.09;4896972;29;20028;-77
2021/10/31 14:14:37;;;;;;;0.52;0.52;;;;;;;19.97;39.41;97640.50;4902890;23;20078;-75
2021/10/31 14:17:24;;;;;;;0.63;0.50;;;;;;;19.92;38.77;97626.81;4877104;29;20112;-74
2021/10/31 14:19:54;;;;;;;0.32;0.32;;;;;;;19.95;38.83;97631.84;4855662;29;20041;-74
2021/10/31 14:22:22;;;;;;;0.65;0.55;;;;;;;19.96;39.00;97638.78;4876844;29;20115;-75
2021/10/31 14:25:09;;;;;;;0.70;0.70;;;;;;;20.08;39.43;97643.16;4855470;29;20072;-74
2021/10/31 14:27:39;;;;;;;1.15;0.40;;;;;;;20.01;39.45;97642.75;4878164;29;20048;-74
2021/10/31 14:30:19;;;;;;;0.52;0.40;;;;;;;20.02;39.22;97635.72;4861838;29;20075;-74
2021/10/31 14:32:52;;;;;;;1.00;0.50;;;;;;;20.01;39.67;97636.66;4855352;29;20029;-75
2021/10/31 14:35:19;;;;;;;0.65;0.50;;;;;;;19.95;39.90;97623.97;4876863;29;20177;-75
2021/10/31 14:38:21;;;;;;;0.40;0.30;;;;;;;19.85;40.38;97626.44;4855394;29;20029;-74
2021/10/31 14:41:00;;;;;;;1.13;0.60;;;;;;;19.77;40.09;97619.16;4887324;29;20029;-75
2021/10/31 14:43:25;;;;;;;0.85;0.57;;;;;;;19.69;40.46;97613.59;4863252;29;20077;-75
2021/10/31 14:46:10;;;;;;;0.30;0.30;;;;;;;19.66;40.67;97605.94;4896733;29;20021;-74
2021/10/31 14:48:42;;;;;;;0.63;0.60;;;;;;;19.61;40.62;97602.81;4879879;29;20056;-75
2021/10/31 14:54:33;;;;;;;3.70;0.65;;;;;;;19.44;41.28;97604.03;4875942;29;20095;-74
2021/10/31 14:59:29;;;;;;;0.90;0.57;;;;;;;19.36;43.41;97608.16;4890000;29;20151;-75
2021/10/31 15:01:55;;;;;;;0.93;0.40;;;;;;;19.05;44.04;97627.88;4898908;29;20028;-74
2021/10/31 15:04:24;;;;;;;0.30;0.30;;;;;;;18.86;44.96;97620.47;4877161;29;20383;-75
2021/10/31 15:06:50;;;;;;;0.50;0.47;;;;;;;18.72;45.58;97614.41;4900201;29;20112;-74
2021/10/31 15:09:17;;;;;;;0.35;0.35;;;;;;;18.58;46.23;97614.50;4887976;29;20044;-74
2021/10/31 15:11:43;;;;;;;1.00;0.55;;;;;;;18.42;46.78;97606.84;4898410;29;20052;-75
2021/10/31 15:14:09;;;;;;;2.63;0.50;;;;;;;18.34;47.21;97603.06;4872727;29;20490;-74
2021/10/31 15:16:36;;;;;;;3.38;0.50;;;;;;;18.16;48.05;97605.97;4899761;29;20451;-75
2021/10/31 15:19:02;;;;;;;0.63;0.60;;;;;;;18.05;48.18;97602.41;4877138;29;20044;-74
2021/10/31 15:21:31;;;;;;;0.55;0.40;;;;;;;17.92;49.18;97594.53;4899896;29;20088;-73
2021/10/31 15:23:58;;;;;;;0.60;0.60;;;;;;;17.71;49.86;97599.38;4878110;29;20044;-74
2021/10/31 15:26:23;;;;;;;0.80;0.80;;;;;;;17.48;50.79;97593.03;4905157;29;20029;-74
2021/10/31 15:28:49;;;;;;;1.33;0.82;;;;;;;17.29;51.97;97592.53;4884124;29;20048;-75
2021/10/31 15:31:15;;;;;;;0.90;0.57;;;;;;;17.11;52.25;97590.13;4906034;29;20072;-74
2021/10/31 15:33:41;;;;;;;1.38;0.65;;;;;;;17.06;52.49;97592.19;4882950;29;20123;-74
2021/10/31 15:36:09;;;;;;;1.35;1.20;;;;;;;16.98;52.65;97584.00;4898355;29;20116;-74
2021/10/31 15:38:36;;;;;;;1.98;1.08;;;;;;;16.92;53.02;97579.16;4882174;29;20051;-74
2021/10/31 15:41:08;;;;;;;1.08;0.73;;;;;;;16.85;53.30;97572.63;4905055;29;20035;-75
2021/10/31 15:43:35;;;;;;;1.27;0.63;;;;;;;16.68;54.09;97566.66;4870798;29;20044;-74
2021/10/31 15:46:01;;;;;;;0.35;0.35;;;;;;;16.43;55.50;97556.00;4898632;29;20083;-74
2021/10/31 15:48:26;;;;;;;0.80;0.77;;;;;;;16.26;56.94;97549.22;4880772;29;20490;-74
2021/10/31 15:50:52;;;;;;;0.75;0.60;;;;;;;16.03;57.78;97558.41;4908616;29;20120;-74
2021/10/31 15:53:17;;;;;;;1.38;0.82;;;;;;;15.86;58.77;97561.22;4879534;29;20465;-74
2021/10/31 15:55:44;;;;;;;1.63;0.73;;;;;;;15.76;58.99;97549.59;4909749;29;20039;-74
2021/10/31 15:58:09;;;;;;;0.60;0.60;;;;;;;15.65;59.42;97551.06;4876461;29;20041;-75
2021/10/31 16:00:35;;;;;;;0.77;0.77;;;;;;;15.53;60.27;97549.16;4897897;29;20833;-76
2021/10/31 16:03:08;;;;;;;0.60;0.60;;;;;;;15.39;60.72;97549.09;4875896;29;20047;-75
2021/10/31 16:05:35;;;;;;;2.17;1.00;;;;;;;15.26;61.27;97542.88;4910610;29;20025;-73
2021/10/31 16:08:00;;;;;;;0.80;0.80;;;;;;;15.16;61.83;97548.63;4877182;29;20135;-75
2021/10/31 16:10:26;;;;;;;1.65;1.42;;;;;;;15.09;61.68;97544.69;4911672;29;20525;-75
2021/10/31 16:12:51;;;;;;;1.15;0.93;;;;;;;15.03;62.36;97552.84;4866892;29;20036;-75
2021/10/31 16:15:17;;;;;;;1.13;0.73;;;;;;;14.99;62.28;97543.53;4897543;29;20071;-75
2021/10/31 16:17:42;;;;;;;0.85;0.65;;;;;;;14.91;62.49;97540.50;4898967;29;20100;-75
2021/10/31 16:20:08;;;;;;;1.88;1.33;;;;;;;14.83;63.09;97543.50;4890014;29;20044;-75
2021/10/31 16:22:35;;;;;;;0.60;0.60;;;;;;;14.76;63.33;97549.16;4898654;29;20037;-74
2021/10/31 16:25:01;;;;;;;1.75;1.65;;;;;;;14.69;63.92;97566.03;4875599;29;20052;-74
2021/10/31 16:27:26;;;;;;;2.38;0.90;;;;;;;14.59;64.54;97560.50;4898597;29;20383;-74
2021/10/31 16:29:51;;;;;;;0.73;0.73;;;;;;;14.62;64.64;97549.91;4889819;29;20131;-74
2021/10/31 16:32:17;;;;;;;1.65;1.55;;;;;;;14.53;65.31;97555.59;4898681;29;20379;-74
2021/10/31 16:34:42;;;;;;;1.75;1.65;;;;;;;14.42;65.63;97560.53;4888878;29;20168;-74
2021/10/31 16:37:08;;;;;;;7.57;1.50;;;;;;;14.21;66.77;97554.66;4899278;29;20028;-74
2021/10/31 16:39:34;;;;;;;1.58;1.48;;;;;;;14.10;67.47;97553.47;4887527;29;20040;-74
2021/10/31 16:42:05;;;;;;;1.40;1.30;;;;;;;14.11;66.86;97549.94;4895015;29;20052;-74
2021/10/31 16:44:33;;;;;;;4.47;1.50;;;;;;;14.07;67.35;97548.44;4865962;29;20127;-74
2021/10/31 16:46:59;;;;;;;2.78;1.00;;;;;;;14.12;66.84;97551.63;4898279;29;20115;-74
2021/10/31 16:49:25;;;;;;;3.20;1.10;;;;;;;14.12;67.08;97540.38;4886205;29;20047;-74
2021/10/31 16:51:51;;;;;;;5.72;2.03;;;;;;;14.02;68.09;97545.22;4896805;29;20196;-74
2021/10/31 16:54:17;;;;;;;2.47;1.63;;;;;;;13.95;68.09;97543.00;4875148;29;20043;-74
2021/10/31 16:56:44;;;;;;;2.90;1.65;;;;;;;13.86;68.59;97539.94;4898117;29;20435;-74
2021/10/31 16:59:10;;;;;;;1.73;1.35;;;;;;;13.77;69.47;97544.78;4884009;29;20043;-74
2021/10/31 17:01:37;;;;;;;5.30;2.13;;;;;;;13.63;69.86;97554.13;4902786;29;20243;-74
2021/10/31 17:04:04;;;;;;;1.70;1.42;;;;;;;13.48;70.55;97541.88;4882973;29;20048;-74
2021/10/31 17:06:30;;;;;;;0.93;0.93;;;;;;;13.42;71.16;97544.78;4903562;29;20068;-74
2021/10/31 17:08:56;;;;;;;2.20;1.80;;;;;;;13.34;71.50;97552.97;4874786;29;20520;-74
2021/10/31 17:11:22;;;;;;;1.20;1.10;;;;;;;13.31;71.73;97540.09;4892806;29;20303;-74
2021/10/31 17:13:47;;;;;;;2.17;1.73;;;;;;;13.41;71.02;97545.69;4869724;29;20051;-75
2021/10/31 17:16:13;;;;;;;1.13;1.02;;;;;;;13.40;71.16;97538.81;4876351;29;20107;-74
2021/10/31 17:18:38;;;;;;;1.60;1.50;;;;;;;13.41;71.11;97543.09;4847934;29;20119;-74
2021/10/31 17:21:03;;;;;;;4.38;1.85;;;;;;;13.36;71.54;97543.31;4878807;29;20041;-74
2021/10/31 17:23:29;;;;;;;3.03;2.17;;;;;;;13.42;71.00;97544.78;4845931;29;20041;-75
2021/10/31 17:25:55;;;;;;;5.93;2.83;;;;;;;13.31;72.09;97539.28;4880955;29;20162;-75
2021/10/31 17:28:24;;;;;;;2.47;1.75;;;;;;;13.33;71.37;97540.03;4843812;29;20048;-74
2021/10/31 17:30:49;;;;;;;6.03;3.80;;;;;;;13.27;72.03;97537.72;4882493;29;20535;-74
2021/10/31 17:33:16;;;;;;;1.80;1.70;;;;;;;13.33;71.38;97534.81;4842172;29;20111;-74
2021/10/31 17:35:42;;;;;;;5.05;2.28;;;;;;;13.26;72.32;97539.50;4884190;29;20025;-74
2021/10/31 17:38:07;;;;;;;6.47;1.60;;;;;;;13.28;72.00;97542.00;4840199;29;20025;-74
2021/10/31 17:40:34;;;;;;;9.85;5.22;;;;;;;12.98;74.03;97544.31;4886248;29;20112;-74
2021/10/31 17:43:01;;;;;;;7.22;2.67;;;;;;;12.95;73.90;97547.88;4862152;29;20024;-75
2021/10/31 17:45:26;;;;;;;9.38;4.90;;;;;;;12.76;75.33;97549.66;4896058;29;20029;-75
2021/10/31 17:47:53;;;;;;;3.22;2.28;;;;;;;12.74;74.97;97551.50;4897264;29;20035;-75
2021/10/31 17:50:21;;;;;;;2.72;1.70;;;;;;;12.72;75.08;97548.13;4874225;29;20085;-74
2021/10/31 17:52:49;;;;;;;1.65;1.20;;;;;;;12.78;75.00;97547.84;4897018;29;20080;-74
2021/10/31 17:55:15;;;;;;;1.52;1.38;;;;;;;12.83;74.60;97553.66;4888139;29;20044;-74
2021/10/31 17:57:42;;;;;;;3.90;2.38;;;;;;;12.95;73.66;97550.47;4897211;29;20039;-74
2021/10/31 18:00:15;;;;;;;4.97;2.30;;;;;;;12.97;73.68;97548.66;4888274;29;20515;-74
2021/10/31 18:02:40;;;;;;;2.55;1.70;;;;;;;12.82;74.59;97544.19;4889573;29;20097;-75
2021/10/31 18:05:08;;;;;;;4.30;2.03;;;;;;;12.82;74.85;97541.59;4887914;29;20044;-75
2021/10/31 18:07:33;;;;;;;3.78;2.65;;;;;;;12.80;75.16;97552.03;4879501;29;20112;-74
2021/10/31 18:10:00;;;;;;;2.78;1.95;;;;;;;12.70;75.60;97550.78;4867348;29;20147;-74
2021/10/31 18:12:25;;;;;;;3.85;2.03;;;;;;;12.50;77.11;97554.28;4883949;29;20032;-74
2021/10/31 18:14:51;;;;;;;7.95;2.78;;;;;;;12.39;78.11;97556.53;4866335;29;20047;-74
2021/10/31 18:17:16;;;;;;;5.28;2.20;;;;;;;12.25;78.47;97559.75;4894950;29;20024;-74
2021/10/31 18:19:41;;;;;;;7.65;2.10;;;;;;;12.11;79.43;97556.09;4884051;29;20039;-75
2021/10/31 18:22:07;;;;;;;4.13;1.50;;;;;;;12.06;79.41;97559.72;4893705;29;20490;-75
2021/10/31 18:24:34;;;;;;;3.13;1.83;;;;;;;12.21;78.50;97562.56;4884367;29;20044;-74
2021/10/31 18:26:59;;;;;;;1.58;1.45;;;;;;;12.23;78.74;97555.53;4899596;29;20039;-75
2021/10/31 18:29:25;;;;;;;5.88;2.92;;;;;;;12.15;79.58;97560.25;4875485;29;20075;-75
2021/10/31 18:31:50;;;;;;;4.22;2.25;;;;;;;11.98;80.53;97556.59;4900606;29;20036;-74
2021/10/31 18:34:16;;;;;;;1.92;1.80;;;;;;;11.90;80.73;97558.72;4886438;29;20078;-74
2021/10/31 18:36:45;;;;;;;3.88;1.58;;;;;;;11.55;82.95;97563.56;4905617;29;20156;-74
2021/10/31 18:39:11;;;;;;;2.47;1.75;;;;;;;11.41;83.69;97560.72;4878758;29;20075;-74
2021/10/31 18:41:36;;;;;;;2.58;1.73;;;;;;;11.27;84.87;97552.66;4901300;29;20068;-74
2021/10/31 18:44:02;;;;;;;2.83;2.35;;;;;;;11.21;85.36;97548.56;4865701;29;20067;-74
2021/10/31 18:46:27;;;;;;;2.60;2.13;;;;;;;11.17;85.73;97551.31;4899915;29;20044;-74
2021/10/31 18:48:52;;;;;;;2.03;1.85;;;;;;;11.17;85.53;97535.78;4877475;29;20057;-74
2021/10/31 18:51:18;;;;;;;4.45;2.28;;;;;;;11.09;85.86;97538.69;4898991;29;20448;-74
2021/10/31 18:53:44;;;;;;;2.78;2.45;;;;;;;11.04;86.40;97530.25;4882021;29;20051;-74
2021/10/31 18:56:12;;;;;;;3.95;2.05;;;;;;;11.04;86.68;97531.09;4909557;29;20024;-74
2021/10/31 18:58:38;;;;;;;2.42;2.03;;;;;;;10.97;87.05;97529.63;4881205;29;20058;-74
2021/10/31 19:01:04;;;;;;;6.93;2.67;;;;;;;10.99;86.95;97522.66;4910268;29;20099;-74
2021/10/31 19:03:29;;;;;;;4.55;3.20;;;;;;;10.96;87.11;97517.59;4877047;29;20044;-74
2021/10/31 19:05:55;;;;;;;5.18;2.05;;;;;;;10.92;87.33;97510.84;4900124;29;20427;-73
2021/10/31 19:08:20;;;;;;;3.63;1.90;;;;;;;10.87;87.51;97515.34;4878685;29;20442;-74
2021/10/31 19:10:46;;;;;;;2.58;2.38;;;;;;;10.77;88.26;97516.63;4911974;29;20541;-74
2021/10/31 19:13:11;;;;;;;5.40;2.22;;;;;;;10.73;88.42;97508.16;4866378;29;20021;-73
2021/10/31 19:15:37;;;;;;;3.85;2.95;;;;;;;10.72;88.17;97498.66;4898726;29;20036;-74
2021/10/31 19:18:02;;;;;;;2.28;1.83;;;;;;;10.61;89.02;97510.38;4898677;29;20103;-74
2021/10/31 19:20:28;;;;;;;4.50;1.92;;;;;;;10.89;87.90;97499.78;4894715;29;20062;-74
2021/10/31 19:22:54;;;;;;;2.60;1.70;;;;;;;10.92;87.57;97500.47;4899748;29;20087;-74
2021/10/31 19:25:25;;;;;;;5.55;1.88;;;;;;;10.86;87.72;97495.53;4890661;29;20115;-74
2021/10/31 19:27:51;;;;;;;2.67;2.03;;;;;;;10.77;88.06;97491.56;4899756;29;20509;-74
2021/10/31 19:30:17;;;;;;;2.53;1.27;;;;;;;10.78;88.85;97489.81;4890586;29;20052;-74
2021/10/31 19:32:42;;;;;;;1.55;1.45;;;;;;;10.82;88.78;97493.97;4899585;29;20035;-74
2021/10/31 19:35:08;;;;;;;1.10;1.10;;;;;;;10.97;87.98;97495.94;4877170;29;20313;-74
2021/10/31 19:37:33;;;;;;;3.63;1.63;;;;;;;11.04;87.74;97494.81;4899658;29;20024;-74
2021/10/31 19:40:01;;;;;;;1.83;1.73;;;;;;;11.10;87.34;97487.69;4876550;29;20045;-74
2021/10/31 19:42:27;;;;;;;2.03;1.90;;;;;;;11.22;86.74;97489.78;4893004;29;20528;-74
2021/10/31 19:44:52;;;;;;;2.10;1.70;;;;;;;11.29;86.45;97493.81;4869957;29;20049;-74
2021/10/31 19:47:18;;;;;;;1.35;1.33;;;;;;;11.32;86.14;97488.50;4899261;29;20123;-74
2021/10/31 19:49:44;;;;;;;2.22;1.88;;;;;;;11.34;85.59;97491.84;4876367;29;20094;-74
2021/10/31 19:52:09;;;;;;;3.88;2.30;;;;;;;11.29;86.16;97491.22;4899316;29;20056;-74